Time;durP1;ratioP1;P1;durP2;ratioP2;P2;SDS_P1;SDS_P2;PMS_P1;PMS_P2;Temp;Humidity;BMP_temperature;BMP_pressure;BME280_temperature;BME280_humidity;BME280_pressure;Samples;Min_cycle;Max_cycle;Signal;HPM_P1;HPM_P2
2021/01/13 00:00:27;;;;;;;;;;;;;;;;;;;;;
2021/01/13 04:29:25;;;;;;;8.45;1.98;;;;;;;;;;5931654;24;20518;-88
2021/01/13 05:03:35;;;;;;;;;;;;;;;;;;;;;
2021/01/13 05:51:27;;;;;;;15.32;3.15;;;;;;;;;;6200042;23;20437;-85
2021/01/13 06:32:56;;;;;;;;;;;;;;;;;;;;;
2021/01/13 07:01:28;;;;;;;14.93;3.33;;;;;;;;;;6029493;23;20448;-85
2021/01/13 07:04:09;;;;;;;12.85;3.20;;;;;;;;;;6057639;23;20446;-86
2021/01/13 07:23:07;;;;;;;15.05;3.70;;;;;;;;;;6032201;23;20365;-86
2021/01/13 07:29:08;;;;;;;17.67;3.17;;;;;;;;;;6030735;23;20473;-86
2021/01/13 07:35:24;;;;;;;;;;;;;;;;;;;;;
2021/01/13 07:38:32;;;;;;;;;;;;;;;;;;;;;
2021/01/13 07:41:19;;;;;;;16.77;3.38;;;;;;;;;;5973485;23;20496;-87
2021/01/13 07:54:00;;;;;;;20.90;4.63;;;;;;;;;;6016445;23;20477;-85
2021/01/13 08:29:17;;;;;;;;;;;;;;;;;;;;;
2021/01/13 09:00:36;;;;;;;18.48;4.53;;;;;;;;;;6009922;23;20498;-86
2021/01/13 09:03:23;;;;;;;15.75;3.78;;;;;;;;;;6040642;23;20985;-86
2021/01/13 09:15:43;;;;;;;14.45;3.42;;;;;;;;;;6176825;23;20441;-86
2021/01/13 09:18:24;;;;;;;13.37;3.30;;;;;;;;;;6151778;23;20381;-88
2021/01/13 09:25:21;;;;;;;;;;;;;;;;;;;;;
2021/01/13 09:49:57;;;;;;;19.17;3.83;;;;;;;;;;6061414;23;20371;-86
2021/01/13 09:52:47;;;;;;;14.77;3.90;;;;;;;;;;6214504;22;20404;-81
2021/01/13 09:55:26;;;;;;;17.52;3.40;;;;;;;;;;6275448;22;20429;-83
2021/01/13 09:57:56;;;;;;;13.20;3.08;;;;;;;;;;6275243;22;20750;-81
2021/01/13 10:00:41;;;;;;;;;;;;;;;;;;;;;
2021/01/13 10:03:12;;;;;;;13.00;3.38;;;;;;;;;;6271904;22;20485;-83
2021/01/13 10:09:25;;;;;;;16.92;3.20;;;;;;;;;;6149707;23;20413;-87
2021/01/13 10:12:07;;;;;;;;;;;;;;;;;;;;;
2021/01/13 10:14:37;;;;;;;10.18;2.97;;;;;;;;;;6229666;23;20918;-87
2021/01/13 10:17:05;;;;;;;13.70;3.50;;;;;;;;;;6263101;22;20833;-86
2021/01/13 10:23:03;;;;;;;12.55;3.28;;;;;;;;;;6303445;22;20877;-89
2021/01/13 10:25:53;;;;;;;14.40;3.20;;;;;;;;;;6207504;23;20360;-87
2021/01/13 10:28:58;;;;;;;21.35;4.50;;;;;;;;;;6210666;22;20426;-89
2021/01/13 10:32:07;;;;;;;13.80;3.15;;;;;;;;;;6111203;23;20370;-85
2021/01/13 10:38:19;;;;;;;;;;;;;;;;;;;;;
2021/01/13 10:41:28;;;;;;;;;;;;;;;;;;;;;
2021/01/13 10:44:33;;;;;;;12.50;3.08;;;;;;;;;;6089651;23;20445;-87
2021/01/13 11:33:36;;;;;;;;;;;;;;;;;;;;;
2021/01/13 11:39:26;;;;;;;11.85;2.90;;;;;;;;;;6084479;23;20849;-82
2021/01/13 11:42:05;;;;;;;12.85;3.13;;;;;;;;;;6218846;22;20385;-85
2021/01/13 11:44:53;;;;;;;19.53;4.43;;;;;;;;;;6267063;22;20998;-86
2021/01/13 11:47:22;;;;;;;13.85;3.13;;;;;;;;;;6266399;22;20387;-85
2021/01/13 11:49:52;;;;;;;14.77;3.40;;;;;;;;;;6260435;22;20447;-84
2021/01/13 11:52:29;;;;;;;14.10;3.27;;;;;;;;;;6264027;22;20396;-84
2021/01/13 11:55:07;;;;;;;15.07;3.45;;;;;;;;;;6266000;22;20472;-84
2021/01/13 11:57:56;;;;;;;14.40;2.92;;;;;;;;;;6266566;22;20416;-84
2021/01/13 12:00:49;;;;;;;13.07;3.20;;;;;;;;;;6221855;22;20501;-85
2021/01/13 12:03:19;;;;;;;13.68;3.58;;;;;;;;;;6252031;22;20422;-80
2021/01/13 12:05:45;;;;;;;17.17;3.03;;;;;;;;;;6269776;22;20395;-80
2021/01/13 12:08:12;;;;;;;12.95;3.67;;;;;;;;;;6273478;22;20353;-80
2021/01/13 12:10:43;;;;;;;16.25;3.38;;;;;;;;;;6273270;22;20354;-79
2021/01/13 12:13:12;;;;;;;17.90;3.60;;;;;;;;;;6271721;22;20387;-78
2021/01/13 12:15:55;;;;;;;19.20;4.15;;;;;;;;;;6273288;22;20407;-80
2021/01/13 12:18:23;;;;;;;16.95;4.15;;;;;;;;;;6273831;22;20358;-79
2021/01/13 12:20:53;;;;;;;12.93;3.17;;;;;;;;;;6274822;22;20385;-79
2021/01/13 12:23:35;;;;;;;18.42;3.60;;;;;;;;;;6274324;22;20399;-78
2021/01/13 12:26:24;;;;;;;14.40;3.70;;;;;;;;;;6274614;22;20362;-79
2021/01/13 12:28:54;;;;;;;16.88;3.50;;;;;;;;;;6274263;22;20350;-79
2021/01/13 12:31:21;;;;;;;14.00;3.17;;;;;;;;;;6299916;22;20359;-78
2021/01/13 12:33:58;;;;;;;14.38;3.70;;;;;;;;;;6274025;22;20339;-79
2021/01/13 12:36:25;;;;;;;13.70;3.47;;;;;;;;;;6273643;22;20457;-78
2021/01/13 12:38:52;;;;;;;16.70;3.53;;;;;;;;;;6301938;22;20379;-80
2021/01/13 12:41:28;;;;;;;16.43;3.50;;;;;;;;;;6275221;22;20334;-79
2021/01/13 12:43:55;;;;;;;14.15;3.33;;;;;;;;;;6274090;22;20844;-79
2021/01/13 12:46:24;;;;;;;16.50;4.45;;;;;;;;;;6275569;22;20832;-79
2021/01/13 12:48:50;;;;;;;14.48;3.55;;;;;;;;;;6274911;22;20339;-78
2021/01/13 12:51:16;;;;;;;10.48;3.17;;;;;;;;;;6274328;22;20342;-78
2021/01/13 12:53:42;;;;;;;15.07;3.22;;;;;;;;;;6274795;22;20386;-80
2021/01/13 12:56:19;;;;;;;15.00;3.80;;;;;;;;;;6274963;22;20346;-78
2021/01/13 12:58:45;;;;;;;14.37;3.37;;;;;;;;;;6271245;22;20358;-80
2021/01/13 13:01:11;;;;;;;15.20;3.60;;;;;;;;;;6273073;22;20346;-80
2021/01/13 13:03:37;;;;;;;13.60;3.13;;;;;;;;;;6274216;22;20435;-80
2021/01/13 13:06:03;;;;;;;13.70;3.53;;;;;;;;;;6274093;22;20355;-80
2021/01/13 13:08:29;;;;;;;11.88;3.50;;;;;;;;;;6274204;22;20429;-80
2021/01/13 13:10:55;;;;;;;12.53;3.43;;;;;;;;;;6275569;22;20361;-80
2021/01/13 13:13:21;;;;;;;11.60;3.03;;;;;;;;;;6274360;22;20354;-80
2021/01/13 13:15:47;;;;;;;15.85;3.63;;;;;;;;;;6274767;22;20429;-81
2021/01/13 13:18:14;;;;;;;17.50;3.40;;;;;;;;;;6275073;22;20438;-79
2021/01/13 13:20:40;;;;;;;16.55;3.92;;;;;;;;;;6273792;22;20391;-80
2021/01/13 13:23:08;;;;;;;19.37;4.10;;;;;;;;;;6275424;22;20433;-80
2021/01/13 13:25:34;;;;;;;11.43;3.55;;;;;;;;;;6274440;22;20355;-80
2021/01/13 13:28:00;;;;;;;15.35;3.33;;;;;;;;;;6274368;22;20796;-80
2021/01/13 13:30:26;;;;;;;17.50;3.10;;;;;;;;;;6272547;22;20370;-83
2021/01/13 13:33:01;;;;;;;12.35;3.20;;;;;;;;;;6270660;22;20346;-84
2021/01/13 13:35:29;;;;;;;15.93;3.75;;;;;;;;;;6272341;22;20354;-84
2021/01/13 13:38:01;;;;;;;19.20;4.30;;;;;;;;;;6272900;22;20480;-84
2021/01/13 13:40:28;;;;;;;17.30;3.90;;;;;;;;;;6273673;22;20675;-82
2021/01/13 13:42:54;;;;;;;14.50;3.30;;;;;;;;;;6272217;22;20988;-83
2021/01/13 13:45:23;;;;;;;13.65;3.38;;;;;;;;;;6272743;22;20391;-86
2021/01/13 13:47:49;;;;;;;15.02;3.92;;;;;;;;;;6272784;22;20394;-83
2021/01/13 13:50:15;;;;;;;16.80;3.53;;;;;;;;;;6274226;22;20377;-85
2021/01/13 13:52:42;;;;;;;20.17;3.83;;;;;;;;;;6271950;22;20351;-83
2021/01/13 13:55:11;;;;;;;19.25;3.80;;;;;;;;;;6271205;22;20347;-83
2021/01/13 13:57:37;;;;;;;18.25;4.15;;;;;;;;;;6273946;22;20472;-84
2021/01/13 14:00:07;;;;;;;16.38;3.53;;;;;;;;;;6272477;22;21168;-87
2021/01/13 14:02:33;;;;;;;16.47;3.70;;;;;;;;;;6268825;22;20385;-84
2021/01/13 14:04:59;;;;;;;15.32;3.83;;;;;;;;;;6271678;22;20445;-82
2021/01/13 14:07:25;;;;;;;16.00;3.60;;;;;;;;;;6272325;22;20387;-82
2021/01/13 14:09:51;;;;;;;12.13;3.72;;;;;;;;;;6272104;22;20778;-81
2021/01/13 14:12:17;;;;;;;18.73;4.10;;;;;;;;;;6272713;22;20350;-81
2021/01/13 14:14:43;;;;;;;14.43;3.83;;;;;;;;;;6272839;22;20347;-81
2021/01/13 14:17:09;;;;;;;14.10;3.08;;;;;;;;;;6272881;22;20827;-82
2021/01/13 14:19:35;;;;;;;16.17;4.07;;;;;;;;;;6272797;22;20444;-82
2021/01/13 14:22:01;;;;;;;14.90;3.45;;;;;;;;;;6273188;22;20353;-83
2021/01/13 14:24:27;;;;;;;14.43;3.23;;;;;;;;;;6271865;22;20388;-82
2021/01/13 14:26:57;;;;;;;24.02;4.10;;;;;;;;;;6273913;22;20404;-83
2021/01/13 14:29:23;;;;;;;14.55;3.45;;;;;;;;;;6272769;22;20363;-83
2021/01/13 14:31:49;;;;;;;16.92;4.00;;;;;;;;;;6272795;22;20357;-82
2021/01/13 14:34:16;;;;;;;18.57;3.80;;;;;;;;;;6272967;22;20351;-83
2021/01/13 14:36:54;;;;;;;13.63;3.22;;;;;;;;;;6271189;22;20358;-84
2021/01/13 14:39:20;;;;;;;14.93;3.30;;;;;;;;;;6272032;22;20423;-81
2021/01/13 14:41:46;;;;;;;16.80;3.33;;;;;;;;;;6272017;22;20794;-83
2021/01/13 14:44:11;;;;;;;10.93;3.10;;;;;;;;;;6271862;22;20346;-81
2021/01/13 14:46:39;;;;;;;15.38;2.95;;;;;;;;;;6268799;22;20430;-83
2021/01/13 14:49:06;;;;;;;13.82;3.30;;;;;;;;;;6272419;22;20354;-82
2021/01/13 14:51:31;;;;;;;11.82;2.72;;;;;;;;;;6272269;22;20449;-81
2021/01/13 14:53:58;;;;;;;14.95;3.67;;;;;;;;;;6272753;22;20389;-83
2021/01/13 14:56:30;;;;;;;19.48;4.35;;;;;;;;;;6272855;22;20889;-81
2021/01/13 14:58:56;;;;;;;15.80;2.75;;;;;;;;;;6273618;22;20407;-82
2021/01/13 15:01:22;;;;;;;11.07;2.67;;;;;;;;;;6272484;22;20600;-82
2021/01/13 15:03:48;;;;;;;15.60;3.23;;;;;;;;;;6256446;22;20376;-83
2021/01/13 15:06:18;;;;;;;13.75;2.97;;;;;;;;;;6241614;22;20352;-84
2021/01/13 15:08:47;;;;;;;13.55;4.43;;;;;;;;;;6241891;22;20348;-83
2021/01/13 15:11:14;;;;;;;13.30;3.90;;;;;;;;;;6241699;22;20399;-81
2021/01/13 15:13:46;;;;;;;14.48;3.83;;;;;;;;;;6242337;22;20390;-82
2021/01/13 15:16:13;;;;;;;14.63;4.53;;;;;;;;;;6242181;22;20372;-81
2021/01/13 15:18:39;;;;;;;11.80;2.78;;;;;;;;;;6241202;22;21063;-82
2021/01/13 15:21:16;;;;;;;17.30;4.35;;;;;;;;;;6228983;22;20354;-82
2021/01/13 15:23:43;;;;;;;11.93;3.15;;;;;;;;;;6241447;22;20474;-82
2021/01/13 15:26:09;;;;;;;12.60;3.00;;;;;;;;;;6242646;22;20356;-83
2021/01/13 15:28:35;;;;;;;13.70;3.58;;;;;;;;;;6241899;22;20348;-83
2021/01/13 15:31:01;;;;;;;12.90;3.00;;;;;;;;;;6240455;22;20435;-83
2021/01/13 15:33:27;;;;;;;15.43;2.80;;;;;;;;;;6238658;22;20466;-83
2021/01/13 15:35:53;;;;;;;12.52;2.58;;;;;;;;;;6239913;22;20377;-83
2021/01/13 15:38:19;;;;;;;13.55;2.95;;;;;;;;;;6239846;22;20344;-83
2021/01/13 15:40:45;;;;;;;20.30;3.28;;;;;;;;;;6238051;22;20406;-85
2021/01/13 15:43:10;;;;;;;14.73;3.38;;;;;;;;;;6238120;22;20614;-81
2021/01/13 15:45:37;;;;;;;13.47;2.83;;;;;;;;;;6237221;22;20391;-81
2021/01/13 15:48:04;;;;;;;13.30;3.00;;;;;;;;;;6239156;22;21029;-82
2021/01/13 15:50:31;;;;;;;14.13;2.92;;;;;;;;;;6240679;22;20426;-81
2021/01/13 15:52:57;;;;;;;11.98;3.17;;;;;;;;;;6241163;22;20769;-83
2021/01/13 15:55:25;;;;;;;17.27;3.47;;;;;;;;;;6238328;22;22828;-82
2021/01/13 15:57:54;;;;;;;14.18;3.28;;;;;;;;;;6239146;22;20359;-82
2021/01/13 16:00:26;;;;;;;19.52;6.88;;;;;;;;;;6242841;22;20427;-81
2021/01/13 16:03:03;;;;;;;37.83;16.27;;;;;;;;;;6246282;22;20916;-83
2021/01/13 16:05:31;;;;;;;25.77;8.02;;;;;;;;;;6270686;22;20401;-82
2021/01/13 16:07:57;;;;;;;11.43;3.35;;;;;;;;;;6270985;22;20361;-82
2021/01/13 16:10:25;;;;;;;14.15;3.20;;;;;;;;;;6273109;22;20422;-82
2021/01/13 16:12:54;;;;;;;10.90;3.28;;;;;;;;;;6273363;22;20385;-85
2021/01/13 16:15:26;;;;;;;13.82;3.10;;;;;;;;;;6273393;22;20701;-86
2021/01/13 16:17:59;;;;;;;11.20;2.40;;;;;;;;;;6273286;22;20378;-83
2021/01/13 16:20:28;;;;;;;10.45;2.95;;;;;;;;;;6273864;22;20430;-84
2021/01/13 16:22:56;;;;;;;13.57;3.40;;;;;;;;;;6273200;22;20351;-85
2021/01/13 16:25:41;;;;;;;13.63;2.63;;;;;;;;;;6273016;22;20358;-84
2021/01/13 16:28:27;;;;;;;14.30;3.22;;;;;;;;;;6270506;22;20362;-83
2021/01/13 16:30:53;;;;;;;13.35;3.00;;;;;;;;;;6271912;22;20347;-84
2021/01/13 16:33:20;;;;;;;10.88;3.00;;;;;;;;;;6270749;22;20339;-83
2021/01/13 16:35:47;;;;;;;18.58;2.92;;;;;;;;;;6270624;22;20353;-84
2021/01/13 16:38:24;;;;;;;15.27;3.42;;;;;;;;;;6271104;22;20345;-84
2021/01/13 16:40:57;;;;;;;16.80;3.33;;;;;;;;;;6270030;22;20431;-83
2021/01/13 16:43:47;;;;;;;;;;;;;;;;;;;;;
2021/01/13 16:46:13;;;;;;;14.18;3.63;;;;;;;;;;6299523;22;20494;-81
2021/01/13 16:48:48;;;;;;;14.40;3.40;;;;;;;;;;6274118;22;20377;-81
2021/01/13 16:51:14;;;;;;;16.92;3.47;;;;;;;;;;6274259;22;20418;-81
2021/01/13 16:53:40;;;;;;;13.02;3.20;;;;;;;;;;6274430;22;20457;-83
2021/01/13 16:56:10;;;;;;;15.80;3.42;;;;;;;;;;6273512;22;20826;-81
2021/01/13 16:58:43;;;;;;;16.50;3.28;;;;;;;;;;6272218;22;20342;-83
2021/01/13 17:01:09;;;;;;;18.88;4.10;;;;;;;;;;6272033;22;20419;-84
2021/01/13 17:03:38;;;;;;;23.08;4.20;;;;;;;;;;6270749;22;20385;-82
2021/01/13 17:06:04;;;;;;;17.15;4.00;;;;;;;;;;6272013;22;20418;-81
2021/01/13 17:08:30;;;;;;;13.25;3.85;;;;;;;;;;6272435;22;20453;-83
2021/01/13 17:10:56;;;;;;;16.80;3.28;;;;;;;;;;6272069;22;20725;-85
2021/01/13 17:13:22;;;;;;;18.77;3.28;;;;;;;;;;6271415;22;20356;-84
2021/01/13 17:15:54;;;;;;;16.25;3.20;;;;;;;;;;6272960;22;20422;-83
2021/01/13 17:18:20;;;;;;;14.95;3.30;;;;;;;;;;6272268;22;20455;-83
2021/01/13 17:20:47;;;;;;;16.98;3.25;;;;;;;;;;6273130;22;20393;-82
2021/01/13 17:23:13;;;;;;;13.90;2.72;;;;;;;;;;6272085;22;20427;-82
2021/01/13 17:25:40;;;;;;;15.55;3.40;;;;;;;;;;6271745;22;20357;-83
2021/01/13 17:28:06;;;;;;;15.50;3.60;;;;;;;;;;6254780;22;20386;-82
2021/01/13 17:30:32;;;;;;;17.25;3.42;;;;;;;;;;6268003;22;20348;-83
2021/01/13 17:32:59;;;;;;;15.20;3.00;;;;;;;;;;6271551;22;20488;-83
2021/01/13 17:35:25;;;;;;;18.50;3.33;;;;;;;;;;6271494;22;21017;-82
2021/01/13 17:37:51;;;;;;;17.92;3.17;;;;;;;;;;6271032;22;20350;-83
2021/01/13 17:40:19;;;;;;;17.50;4.00;;;;;;;;;;6272048;22;20777;-83
2021/01/13 17:42:53;;;;;;;14.30;3.67;;;;;;;;;;6271756;22;20437;-83
2021/01/13 17:45:19;;;;;;;17.20;4.35;;;;;;;;;;6271671;22;20445;-82
2021/01/13 17:47:46;;;;;;;9.45;3.05;;;;;;;;;;6273202;22;20417;-87
2021/01/13 17:50:13;;;;;;;13.75;3.83;;;;;;;;;;6272136;22;20450;-81
2021/01/13 17:52:43;;;;;;;14.90;3.00;;;;;;;;;;6273050;22;20378;-83
2021/01/13 17:55:10;;;;;;;11.87;3.00;;;;;;;;;;6274194;22;20391;-83
2021/01/13 17:57:41;;;;;;;19.75;3.40;;;;;;;;;;6273860;22;20362;-84
2021/01/13 18:00:08;;;;;;;15.90;3.28;;;;;;;;;;6273490;22;20430;-83
2021/01/13 18:02:37;;;;;;;14.90;3.60;;;;;;;;;;6272692;22;20365;-84
2021/01/13 18:05:03;;;;;;;15.23;3.15;;;;;;;;;;6272095;22;20452;-82
2021/01/13 18:07:29;;;;;;;17.67;4.93;;;;;;;;;;6270207;22;20359;-83
2021/01/13 18:09:55;;;;;;;27.17;10.80;;;;;;;;;;6270154;22;20343;-84
2021/01/13 18:12:21;;;;;;;25.80;12.80;;;;;;;;;;6269791;22;20343;-84
2021/01/13 18:14:47;;;;;;;83.47;51.85;;;;;;;;;;6270260;22;20358;-84
2021/01/13 18:17:14;;;;;;;24.33;6.25;;;;;;;;;;6270397;22;20922;-84
2021/01/13 18:19:40;;;;;;;24.48;8.50;;;;;;;;;;6270715;22;20382;-84
2021/01/13 18:22:09;;;;;;;33.13;14.68;;;;;;;;;;6270826;22;20461;-84
2021/01/13 18:24:35;;;;;;;23.23;7.30;;;;;;;;;;6271556;22;20381;-83
2021/01/13 18:27:01;;;;;;;16.02;3.55;;;;;;;;;;6270777;22;20350;-83
2021/01/13 18:29:28;;;;;;;18.65;4.80;;;;;;;;;;6270279;22;20672;-84
2021/01/13 18:31:54;;;;;;;19.15;5.38;;;;;;;;;;6270016;22;20370;-84
2021/01/13 18:34:19;;;;;;;19.20;5.18;;;;;;;;;;6271757;22;20412;-83
2021/01/13 18:36:45;;;;;;;16.98;3.92;;;;;;;;;;6271270;22;21034;-83
2021/01/13 18:39:11;;;;;;;18.02;3.30;;;;;;;;;;6271110;22;20374;-83
2021/01/13 18:41:43;;;;;;;13.40;2.87;;;;;;;;;;6271631;22;20985;-85
2021/01/13 18:44:16;;;;;;;15.43;3.35;;;;;;;;;;6273217;22;20434;-85
2021/01/13 18:46:45;;;;;;;17.27;3.57;;;;;;;;;;6272121;22;20799;-84
2021/01/13 18:49:11;;;;;;;14.00;3.55;;;;;;;;;;6270884;22;21027;-86
2021/01/13 18:51:37;;;;;;;16.42;3.90;;;;;;;;;;6270831;22;20998;-84
2021/01/13 18:54:06;;;;;;;17.05;3.03;;;;;;;;;;6271374;22;20808;-84
2021/01/13 18:56:35;;;;;;;15.88;3.35;;;;;;;;;;6271318;22;20391;-86
2021/01/13 18:59:01;;;;;;;16.10;3.15;;;;;;;;;;6271493;22;20399;-84
2021/01/13 19:01:32;;;;;;;20.27;3.55;;;;;;;;;;6271322;22;20368;-85
2021/01/13 19:04:03;;;;;;;15.48;3.20;;;;;;;;;;6270376;22;20814;-84
2021/01/13 19:06:30;;;;;;;12.32;2.78;;;;;;;;;;6269019;22;20420;-85
2021/01/13 19:09:00;;;;;;;13.67;3.03;;;;;;;;;;6270988;22;20453;-83
2021/01/13 19:11:34;;;;;;;13.25;3.05;;;;;;;;;;6271280;22;20823;-84
2021/01/13 19:14:00;;;;;;;14.60;3.35;;;;;;;;;;6271252;22;20414;-85
2021/01/13 19:16:26;;;;;;;12.82;3.10;;;;;;;;;;6269977;22;20489;-84
2021/01/13 19:18:54;;;;;;;15.63;3.40;;;;;;;;;;6270540;22;20347;-83
2021/01/13 19:21:23;;;;;;;16.98;3.38;;;;;;;;;;6271488;22;20402;-84
2021/01/13 19:23:51;;;;;;;13.63;2.60;;;;;;;;;;6270773;22;20809;-84
2021/01/13 19:26:17;;;;;;;13.95;2.47;;;;;;;;;;6271092;22;20472;-84
2021/01/13 19:28:43;;;;;;;12.50;2.78;;;;;;;;;;6270374;22;20617;-83
2021/01/13 19:31:10;;;;;;;14.32;2.90;;;;;;;;;;6270324;22;20435;-84
2021/01/13 19:33:35;;;;;;;15.38;3.35;;;;;;;;;;6270942;22;20408;-84
2021/01/13 19:36:02;;;;;;;15.73;3.25;;;;;;;;;;6270653;22;20342;-82
2021/01/13 19:38:28;;;;;;;15.75;3.50;;;;;;;;;;6270834;22;20346;-81
2021/01/13 19:40:54;;;;;;;12.85;3.08;;;;;;;;;;6270837;22;20386;-81
2021/01/13 19:43:20;;;;;;;15.18;3.13;;;;;;;;;;6270879;22;20969;-82
2021/01/13 19:45:47;;;;;;;14.55;3.30;;;;;;;;;;6270723;22;20655;-82
2021/01/13 19:48:13;;;;;;;19.35;3.58;;;;;;;;;;6270878;22;20417;-83
2021/01/13 19:50:50;;;;;;;13.07;3.67;;;;;;;;;;6271223;22;20817;-82
2021/01/13 19:53:17;;;;;;;17.65;3.28;;;;;;;;;;6269814;22;20478;-83
2021/01/13 19:55:43;;;;;;;21.93;3.00;;;;;;;;;;6270965;22;20412;-84
2021/01/13 19:58:09;;;;;;;12.82;2.88;;;;;;;;;;6270419;22;20347;-82
2021/01/13 20:00:35;;;;;;;18.40;3.70;;;;;;;;;;6270807;22;20406;-83
2021/01/13 20:03:02;;;;;;;18.73;4.00;;;;;;;;;;6269287;22;20362;-82
2021/01/13 20:05:28;;;;;;;22.42;4.15;;;;;;;;;;6272600;22;20370;-83
2021/01/13 20:07:54;;;;;;;19.33;3.58;;;;;;;;;;6270655;22;20358;-82
2021/01/13 20:10:25;;;;;;;13.85;3.33;;;;;;;;;;6271434;22;20359;-84
2021/01/13 20:12:52;;;;;;;14.75;3.03;;;;;;;;;;6271140;22;20722;-83
2021/01/13 20:15:19;;;;;;;15.75;3.03;;;;;;;;;;6272733;22;20359;-83
2021/01/13 20:17:46;;;;;;;20.35;3.40;;;;;;;;;;6272554;22;20342;-82
2021/01/13 20:20:13;;;;;;;20.50;3.45;;;;;;;;;;6275941;22;20382;-82
2021/01/13 20:22:42;;;;;;;16.55;3.75;;;;;;;;;;6273752;22;20355;-82
2021/01/13 20:25:11;;;;;;;18.02;3.17;;;;;;;;;;6273239;22;20383;-83
2021/01/13 20:27:37;;;;;;;21.08;3.28;;;;;;;;;;6273154;22;20389;-82
2021/01/13 20:30:03;;;;;;;13.50;3.40;;;;;;;;;;6273010;22;20361;-82
2021/01/13 20:32:29;;;;;;;17.63;3.92;;;;;;;;;;6271987;22;20370;-82
2021/01/13 20:34:55;;;;;;;17.77;3.28;;;;;;;;;;6273316;22;20346;-82
2021/01/13 20:37:21;;;;;;;15.88;4.07;;;;;;;;;;6273364;22;20346;-83
2021/01/13 20:39:47;;;;;;;16.20;3.70;;;;;;;;;;6275155;22;20463;-83
2021/01/13 20:42:16;;;;;;;15.80;3.70;;;;;;;;;;6272855;22;20354;-82
2021/01/13 20:44:42;;;;;;;17.80;3.70;;;;;;;;;;6272947;22;20354;-83
2021/01/13 20:47:08;;;;;;;16.80;3.33;;;;;;;;;;6271879;22;20358;-82
2021/01/13 20:49:34;;;;;;;18.38;3.47;;;;;;;;;;6272978;22;20354;-82
2021/01/13 20:52:01;;;;;;;20.98;3.92;;;;;;;;;;6272499;22;20361;-82
2021/01/13 20:54:27;;;;;;;17.30;3.80;;;;;;;;;;6273064;22;20404;-83
2021/01/13 20:56:53;;;;;;;17.05;4.05;;;;;;;;;;6272439;22;20346;-83
2021/01/13 20:59:20;;;;;;;19.17;3.72;;;;;;;;;;6272672;22;20472;-82
2021/01/13 21:01:46;;;;;;;17.65;3.28;;;;;;;;;;6271492;22;21493;-82
2021/01/13 21:04:13;;;;;;;16.97;3.77;;;;;;;;;;6272293;22;20806;-83
2021/01/13 21:06:39;;;;;;;22.20;4.13;;;;;;;;;;6274213;22;20346;-83
2021/01/13 21:09:06;;;;;;;19.50;3.38;;;;;;;;;;6259415;22;20433;-82
2021/01/13 21:11:32;;;;;;;15.10;4.03;;;;;;;;;;6271398;22;20828;-82
2021/01/13 21:14:01;;;;;;;15.68;3.75;;;;;;;;;;6273786;22;20680;-82
2021/01/13 21:16:27;;;;;;;15.25;3.55;;;;;;;;;;6274778;22;20383;-81
2021/01/13 21:18:53;;;;;;;15.32;3.80;;;;;;;;;;6274605;22;20365;-81
2021/01/13 21:21:19;;;;;;;12.85;3.17;;;;;;;;;;6275833;22;20343;-81
2021/01/13 21:23:46;;;;;;;16.63;3.83;;;;;;;;;;6275058;22;20400;-83
2021/01/13 21:26:18;;;;;;;16.65;3.90;;;;;;;;;;6269648;22;20339;-85
2021/01/13 21:28:45;;;;;;;15.38;3.38;;;;;;;;;;6275104;22;20422;-82
2021/01/13 21:31:14;;;;;;;16.85;3.22;;;;;;;;;;6274755;22;20378;-81
2021/01/13 21:33:41;;;;;;;18.10;3.33;;;;;;;;;;6273293;22;20456;-83
2021/01/13 21:36:07;;;;;;;16.15;3.03;;;;;;;;;;6272644;22;20845;-80
2021/01/13 21:38:33;;;;;;;15.33;3.27;;;;;;;;;;6271953;22;20357;-79
2021/01/13 21:40:59;;;;;;;13.32;3.15;;;;;;;;;;6272680;22;20394;-82
2021/01/13 21:43:29;;;;;;;15.60;3.40;;;;;;;;;;6273107;22;20350;-82
2021/01/13 21:45:55;;;;;;;13.05;2.95;;;;;;;;;;6272587;22;20382;-82
2021/01/13 21:48:21;;;;;;;13.20;2.67;;;;;;;;;;6275298;22;20433;-80
2021/01/13 21:50:47;;;;;;;14.47;2.70;;;;;;;;;;6274129;22;20351;-84
2021/01/13 21:53:14;;;;;;;16.27;3.20;;;;;;;;;;6274690;22;20393;-82
2021/01/13 21:55:40;;;;;;;11.60;2.90;;;;;;;;;;6273492;22;20521;-81
2021/01/13 21:58:06;;;;;;;8.88;2.30;;;;;;;;;;6272197;22;20857;-83
2021/01/13 22:00:32;;;;;;;17.10;2.83;;;;;;;;;;6272719;22;20374;-82
2021/01/13 22:02:59;;;;;;;12.75;2.70;;;;;;;;;;6270792;22;20389;-81
2021/01/13 22:05:25;;;;;;;9.05;2.50;;;;;;;;;;6271270;22;20382;-82
2021/01/13 22:07:51;;;;;;;12.15;2.58;;;;;;;;;;6271924;22;20354;-84
2021/01/13 22:10:17;;;;;;;13.73;2.58;;;;;;;;;;6270804;22;20355;-85
2021/01/13 22:12:43;;;;;;;18.52;4.05;;;;;;;;;;6272737;22;20343;-83
2021/01/13 22:15:09;;;;;;;14.30;2.67;;;;;;;;;;6271572;22;20354;-84
2021/01/13 22:17:36;;;;;;;12.07;2.77;;;;;;;;;;6272609;22;20741;-84
2021/01/13 22:20:03;;;;;;;12.13;2.97;;;;;;;;;;6270557;22;20386;-85
2021/01/13 22:22:29;;;;;;;12.60;2.60;;;;;;;;;;6271403;22;20768;-84
2021/01/13 22:24:55;;;;;;;11.18;2.42;;;;;;;;;;6273270;22;20362;-85
2021/01/13 22:27:21;;;;;;;13.52;2.95;;;;;;;;;;6274623;22;20440;-84
2021/01/13 22:29:47;;;;;;;10.95;2.40;;;;;;;;;;6273735;22;20643;-84
2021/01/13 22:32:15;;;;;;;14.57;2.85;;;;;;;;;;6271744;22;20441;-85
2021/01/13 22:34:42;;;;;;;14.75;2.88;;;;;;;;;;6272328;22;20394;-82
2021/01/13 22:37:08;;;;;;;12.38;2.53;;;;;;;;;;6272396;22;20346;-83
2021/01/13 22:39:34;;;;;;;11.93;2.50;;;;;;;;;;6267615;22;20955;-83
2021/01/13 22:42:00;;;;;;;11.45;2.40;;;;;;;;;;6273185;22;20370;-83
2021/01/13 22:44:27;;;;;;;12.95;2.53;;;;;;;;;;6272216;22;20843;-83
2021/01/13 22:46:53;;;;;;;13.35;2.63;;;;;;;;;;6272905;22;20817;-84
2021/01/13 22:49:19;;;;;;;9.20;1.97;;;;;;;;;;6272505;22;20992;-83
2021/01/13 22:51:45;;;;;;;11.77;2.08;;;;;;;;;;6273269;22;20350;-82
2021/01/13 22:54:12;;;;;;;11.13;2.55;;;;;;;;;;6273696;22;20347;-83
2021/01/13 22:56:38;;;;;;;13.57;3.00;;;;;;;;;;6273030;22;20415;-83
2021/01/13 22:59:04;;;;;;;11.07;2.78;;;;;;;;;;6272960;22;20382;-84
2021/01/13 23:01:30;;;;;;;9.48;2.13;;;;;;;;;;6273141;22;20424;-83
2021/01/13 23:03:57;;;;;;;13.38;2.65;;;;;;;;;;6273564;22;20383;-83
2021/01/13 23:06:23;;;;;;;8.95;2.45;;;;;;;;;;6274057;22;20345;-83
2021/01/13 23:08:49;;;;;;;12.90;2.70;;;;;;;;;;6273762;22;20350;-81
2021/01/13 23:11:15;;;;;;;16.15;3.10;;;;;;;;;;6274694;22;20365;-84
2021/01/13 23:13:41;;;;;;;11.90;2.67;;;;;;;;;;6273424;22;20436;-83
2021/01/13 23:16:07;;;;;;;8.63;1.90;;;;;;;;;;6274033;22;20644;-83
2021/01/13 23:18:34;;;;;;;7.15;2.38;;;;;;;;;;6272446;22;20347;-80
2021/01/13 23:21:00;;;;;;;9.50;2.38;;;;;;;;;;6272514;22;20831;-82
2021/01/13 23:23:26;;;;;;;6.97;2.17;;;;;;;;;;6273422;22;20786;-84
2021/01/13 23:25:53;;;;;;;8.48;1.80;;;;;;;;;;6274133;22;20822;-83
2021/01/13 23:28:20;;;;;;;10.15;2.30;;;;;;;;;;6272727;22;20707;-82
2021/01/13 23:30:47;;;;;;;9.67;2.30;;;;;;;;;;6274408;22;20431;-83
2021/01/13 23:33:12;;;;;;;11.70;2.72;;;;;;;;;;6273306;22;20642;-83
2021/01/13 23:35:39;;;;;;;10.38;2.28;;;;;;;;;;6273682;22;20418;-82
2021/01/13 23:38:07;;;;;;;11.53;2.27;;;;;;;;;;6273715;22;20346;-83
2021/01/13 23:40:33;;;;;;;11.90;2.03;;;;;;;;;;6274112;22;20428;-81
2021/01/13 23:42:59;;;;;;;11.30;2.22;;;;;;;;;;6272058;22;20359;-82
2021/01/13 23:45:25;;;;;;;8.52;2.15;;;;;;;;;;6273237;22;20350;-84
2021/01/13 23:47:53;;;;;;;11.68;2.40;;;;;;;;;;6272740;22;20480;-82
2021/01/13 23:50:19;;;;;;;7.38;2.00;;;;;;;;;;6273669;22;20481;-83
2021/01/13 23:52:45;;;;;;;11.30;2.42;;;;;;;;;;6272150;22;20342;-84
2021/01/13 23:55:12;;;;;;;8.35;2.40;;;;;;;;;;6273958;22;20351;-83
2021/01/13 23:57:39;;;;;;;10.43;2.33;;;;;;;;;;6273473;22;20354;-82
